Time;durP1;ratioP1;P1;durP2;ratioP2;P2;SDS_P1;SDS_P2;PMS_P1;PMS_P2;Temp;Humidity;BMP_temperature;BMP_pressure;BME280_temperature;BME280_humidity;BME280_pressure;Samples;Min_cycle;Max_cycle;Signal;HPM_P1;HPM_P2
2022/12/08 00:01:54;;;;;;;101.23;56.90;;;;;;;28.86;70.10;100819.47;5085797;27;66499;-34
2022/12/08 00:04:25;;;;;;;98.13;54.90;;;;;;;28.99;70.49;100829.47;5088148;27;70062;-33
2022/12/08 00:09:45;;;;;;;92.65;53.92;;;;;;;29.07;71.50;100837.38;5093801;27;69941;-34
2022/12/08 00:12:17;;;;;;;78.10;47.63;;;;;;;29.10;72.12;100842.38;5089304;27;65275;-32
2022/12/08 00:14:48;;;;;;;61.25;37.83;;;;;;;29.04;71.85;100845.91;5085312;27;69397;-31
2022/12/08 00:17:19;;;;;;;59.65;34.67;;;;;;;28.85;72.96;100824.06;5083985;27;67072;-35
2022/12/08 00:19:51;;;;;;;76.70;34.28;;;;;;;29.00;72.60;100850.84;5089517;27;69704;-32
2022/12/08 00:22:23;;;;;;;66.97;34.17;;;;;;;29.00;73.07;100864.34;5081696;27;66720;-32
2022/12/08 00:24:55;;;;;;;69.28;34.03;;;;;;;28.99;72.97;100861.88;5084915;27;70230;-32
2022/12/08 00:27:26;;;;;;;57.37;34.10;;;;;;;29.00;73.55;100861.63;5084396;27;65248;-32
2022/12/08 00:29:57;;;;;;;53.77;33.47;;;;;;;28.99;72.97;100861.88;5086694;27;70039;-32
2022/12/08 00:32:28;;;;;;;55.13;34.17;;;;;;;28.66;72.95;100808.69;5089735;27;66161;-32
2022/12/08 00:34:59;;;;;;;65.45;33.55;;;;;;;29.02;73.28;100866.84;5084584;27;69431;-33
2022/12/08 00:37:31;;;;;;;67.22;37.28;;;;;;;28.94;72.95;100852.50;5083131;27;65220;-30
2022/12/08 00:40:02;;;;;;;75.20;40.72;;;;;;;29.14;73.13;100870.59;5087093;27;69666;-32
2022/12/08 00:42:36;;;;;;;56.92;37.95;;;;;;;29.18;69.79;100871.88;5081923;27;43661;-31
2022/12/08 00:45:09;;;;;;;52.72;35.88;;;;;;;29.21;69.64;100882.25;5083665;27;70101;-33
2022/12/08 00:47:40;;;;;;;47.65;34.78;;;;;;;29.28;68.75;100887.63;5091245;27;66270;-32
2022/12/08 00:50:11;;;;;;;43.15;31.90;;;;;;;29.33;68.28;100893.25;5100824;27;70585;-31
2022/12/08 00:52:42;;;;;;;47.00;33.72;;;;;;;29.36;68.11;100904.50;5082733;27;66582;-31
2022/12/08 00:55:14;;;;;;;40.87;31.40;;;;;;;29.39;68.30;100914.03;5081646;27;70263;-31
2022/12/08 00:57:45;;;;;;;47.45;32.60;;;;;;;29.37;67.76;100908.00;5080934;27;66585;-32
2022/12/08 01:00:17;;;;;;;42.47;31.38;;;;;;;29.44;67.55;100908.81;5082518;27;70093;-31
2022/12/08 01:02:48;;;;;;;;;;;;;;;29.16;68.66;100914.44;5091399;27;66813;-31
2022/12/08 01:05:19;;;;;;;35.97;29.45;;;;;;;29.47;66.92;100912.97;5086856;27;70341;-32
2022/12/08 01:07:50;;;;;;;36.92;29.98;;;;;;;29.51;66.65;100911.53;5091748;27;66242;-32
2022/12/08 01:10:22;;;;;;;34.33;29.30;;;;;;;29.54;66.94;100914.63;5083068;27;69899;-34
2022/12/08 01:12:53;;;;;;;37.67;29.67;;;;;;;29.57;66.22;100924.19;5084521;27;66124;-31
2022/12/08 01:15:24;;;;;;;40.28;29.27;;;;;;;29.57;65.94;100919.63;5084410;27;70100;-32
2022/12/08 01:17:55;;;;;;;34.87;28.63;;;;;;;29.62;66.14;100921.69;5079660;27;65955;-31
2022/12/08 01:20:27;;;;;;;40.08;27.65;;;;;;;29.62;66.06;100921.69;5086262;27;69463;-32
2022/12/08 01:22:58;;;;;;;30.65;27.13;;;;;;;29.64;66.15;100930.44;5088662;27;66324;-32
2022/12/08 01:25:30;;;;;;;35.97;26.40;;;;;;;29.66;66.31;100933.78;5079653;27;69715;-33
2022/12/08 01:28:01;;;;;;;28.87;25.27;;;;;;;29.60;66.28;100918.38;5085208;27;66077;-31
2022/12/08 01:30:32;;;;;;;36.38;25.48;;;;;;;29.69;65.94;100932.53;5080552;27;69858;-33
2022/12/08 01:33:04;;;;;;;29.93;25.83;;;;;;;29.66;65.89;100922.13;5080480;27;66537;-32
2022/12/08 01:35:35;;;;;;;32.67;26.65;;;;;;;29.73;65.92;100934.59;5081413;27;70001;-31
2022/12/08 01:38:06;;;;;;;32.70;25.50;;;;;;;29.73;65.84;100923.78;5080233;27;66112;-32
2022/12/08 01:40:38;;;;;;;31.88;25.17;;;;;;;29.61;65.86;100903.78;5083895;27;69478;-35
2022/12/08 01:43:20;;;;;;;29.27;24.73;;;;;;;29.76;65.64;100928.75;5083696;27;66210;-32
2022/12/08 01:45:51;;;;;;;32.92;24.75;;;;;;;29.78;65.71;100931.25;5088613;27;69790;-34
2022/12/08 01:48:26;;;;;;;31.30;25.07;;;;;;;29.83;65.00;100937.69;5093893;27;65168;-32
2022/12/08 01:50:58;;;;;;;29.65;23.75;;;;;;;29.78;65.04;100926.69;5091655;27;69322;-34
2022/12/08 01:53:32;;;;;;;33.90;25.45;;;;;;;29.84;64.94;100942.06;5093971;27;65435;-32
2022/12/08 01:56:11;;;;;;;27.38;23.48;;;;;;;29.89;64.94;100948.69;5084328;27;70077;-32
2022/12/08 01:58:46;;;;;;;28.27;23.98;;;;;;;29.80;65.06;100940.81;5081315;27;65660;-34
2022/12/08 02:01:18;;;;;;;28.33;23.33;;;;;;;29.91;64.68;100943.91;5085907;27;69767;-33
2022/12/08 02:03:57;;;;;;;26.50;23.27;;;;;;;29.90;65.11;100947.66;5087593;27;65057;-32
2022/12/08 02:06:34;;;;;;;26.90;22.73;;;;;;;29.83;64.58;100934.16;5083009;27;70278;-33
2022/12/08 02:09:07;;;;;;;27.15;22.58;;;;;;;29.95;64.71;100937.88;5086241;27;66425;-34
2022/12/08 02:11:38;;;;;;;25.67;21.42;;;;;;;29.90;64.63;100934.16;5090080;27;70120;-31
2022/12/08 02:14:12;;;;;;;25.97;22.00;;;;;;;29.40;64.53;100853.53;5084541;27;66277;-32
2022/12/08 02:17:05;;;;;;;26.00;21.27;;;;;;;29.97;65.19;100946.59;5097563;27;70392;-35
2022/12/08 02:20:10;;;;;;;27.02;21.90;;;;;;;29.96;65.23;100941.41;5086557;27;64679;-32
2022/12/08 02:23:08;;;;;;;24.52;21.30;;;;;;;30.00;64.59;100937.22;5087961;27;70232;-32
2022/12/08 02:26:00;;;;;;;24.73;21.73;;;;;;;30.06;64.67;100944.47;5090120;27;66549;-32
2022/12/08 02:28:50;;;;;;;26.10;21.48;;;;;;;29.96;64.56;100944.94;5083863;27;69501;-34
2022/12/08 02:31:38;;;;;;;26.58;21.45;;;;;;;30.02;64.41;100960.31;5087052;27;64849;-32
2022/12/08 02:34:15;;;;;;;28.23;21.23;;;;;;;30.07;64.63;100954.28;5087177;27;70489;-31
2022/12/08 02:36:56;;;;;;;26.23;21.05;;;;;;;30.11;64.22;100944.66;5085675;27;66719;-32
2022/12/08 02:39:37;;;;;;;23.15;20.83;;;;;;;29.90;64.55;100912.50;5083220;27;70187;-32
2022/12/08 02:42:22;;;;;;;26.92;20.55;;;;;;;29.72;64.57;100889.66;5085589;27;66816;-32
2022/12/08 02:45:16;;;;;;;22.35;19.98;;;;;;;30.07;64.22;100929.91;5087973;27;72006;-31
2022/12/08 02:47:48;;;;;;;26.92;20.98;;;;;;;30.15;64.21;100943.22;5083738;27;65632;-37
2022/12/08 02:50:20;;;;;;;24.90;20.50;;;;;;;30.09;64.13;100924.28;5070856;27;68969;-35
2022/12/08 02:52:52;;;;;;;22.77;20.05;;;;;;;30.04;63.67;100914.13;5086792;27;66418;-36
2022/12/08 02:55:32;;;;;;;21.77;19.05;;;;;;;29.30;64.18;100789.13;5084915;27;70663;-32
2022/12/08 02:58:40;;;;;;;25.10;19.52;;;;;;;30.15;64.19;100936.97;5086930;27;65510;-34
2022/12/08 03:01:31;;;;;;;21.25;19.05;;;;;;;30.23;63.75;100934.88;5087662;27;70251;-33
2022/12/08 03:04:25;;;;;;;20.35;18.20;;;;;;;29.90;64.16;100882.75;5088712;27;66597;-33
2022/12/08 03:07:21;;;;;;;20.98;18.33;;;;;;;30.27;63.41;100936.09;5087352;27;69146;-32
2022/12/08 03:10:14;;;;;;;20.00;17.92;;;;;;;30.30;63.49;100939.44;5086435;27;66035;-32
2022/12/08 03:12:53;;;;;;;21.17;18.38;;;;;;;30.24;63.51;100925.72;5087556;27;70310;-32
2022/12/08 03:15:24;;;;;;;21.27;19.10;;;;;;;30.35;63.21;100931.50;5093775;27;65047;-31
2022/12/08 03:17:59;;;;;;;19.88;17.88;;;;;;;30.34;63.11;100925.28;5081621;27;69652;-31
2022/12/08 03:20:33;;;;;;;20.90;18.75;;;;;;;29.91;63.55;100846.56;5088622;27;66392;-32
2022/12/08 03:23:10;;;;;;;20.33;18.40;;;;;;;29.91;63.16;100838.44;5084119;27;69313;-31
2022/12/08 03:26:00;;;;;;;20.88;18.70;;;;;;;29.80;63.05;100838.06;5084582;27;64916;-31
2022/12/08 03:28:31;;;;;;;20.50;18.45;;;;;;;30.42;63.43;100921.47;5084953;27;70309;-32
2022/12/08 03:31:06;;;;;;;21.38;18.25;;;;;;;30.06;62.65;100857.91;5083675;27;65483;-31
2022/12/08 03:33:42;;;;;;;20.48;18.27;;;;;;;30.31;63.22;100895.91;5081089;27;70411;-32
2022/12/08 03:36:14;;;;;;;22.77;18.70;;;;;;;30.00;62.85;100826.31;5085061;27;66682;-31
2022/12/08 03:38:49;;;;;;;20.60;18.08;;;;;;;30.51;62.62;100903.94;5085646;27;69349;-32
2022/12/08 03:41:22;;;;;;;22.58;18.48;;;;;;;30.53;63.02;100907.25;5088161;27;67064;-32
2022/12/08 03:43:58;;;;;;;19.83;18.00;;;;;;;30.51;62.54;100893.13;5093648;27;69546;-32
2022/12/08 03:46:30;;;;;;;23.70;18.98;;;;;;;30.00;62.51;100804.69;5086900;27;66286;-32
2022/12/08 03:49:02;;;;;;;20.33;18.55;;;;;;;30.57;63.06;100897.66;5089646;27;70230;-31
2022/12/08 03:51:33;;;;;;;19.63;17.57;;;;;;;30.60;63.05;100880.97;5085189;27;66570;-34
2022/12/08 03:54:04;;;;;;;21.60;18.70;;;;;;;30.38;62.34;100839.88;5086286;27;69202;-32
2022/12/08 03:56:37;;;;;;;20.40;18.33;;;;;;;30.31;62.42;100822.03;5083976;27;66393;-32
2022/12/08 03:59:10;;;;;;;20.60;18.60;;;;;;;30.00;62.39;100766.81;5083542;27;69197;-32
2022/12/08 04:01:42;;;;;;;21.25;18.65;;;;;;;30.68;62.46;100863.63;5092346;27;65336;-34
2022/12/08 04:04:13;;;;;;;21.63;19.37;;;;;;;30.58;62.35;100845.16;5090052;27;72373;-33
2022/12/08 04:06:44;;;;;;;19.63;17.83;;;;;;;30.61;62.60;100839.28;5088532;27;65841;-33
2022/12/08 04:09:15;;;;;;;20.93;18.80;;;;;;;30.60;62.41;100837.66;5085453;27;70401;-32
2022/12/08 04:11:47;;;;;;;21.33;19.20;;;;;;;30.75;62.36;100850.03;5098429;27;65294;-34
2022/12/08 04:14:18;;;;;;;20.73;18.87;;;;;;;30.23;62.61;100761.72;5085307;27;70047;-31
2022/12/08 04:16:49;;;;;;;21.40;19.20;;;;;;;30.75;62.41;100839.19;5084850;27;65118;-32
2022/12/08 04:19:20;;;;;;;23.73;20.13;;;;;;;30.65;62.17;100812.63;5097382;27;70330;-32
2022/12/08 04:21:51;;;;;;;22.07;19.77;;;;;;;30.80;61.98;100836.69;5087720;27;65919;-32
2022/12/08 04:24:23;;;;;;;23.05;20.92;;;;;;;30.76;62.16;100813.78;5080707;27;70412;-32
2022/12/08 04:26:54;;;;;;;23.70;20.97;;;;;;;30.83;62.32;100820.00;5080551;27;65559;-31
2022/12/08 04:29:26;;;;;;;25.08;22.38;;;;;;;30.77;62.12;100799.19;5079242;27;70090;-34
2022/12/08 04:31:57;;;;;;;27.63;24.93;;;;;;;30.85;62.45;100805.19;5087315;27;66172;-31
2022/12/08 04:34:29;;;;;;;31.38;28.30;;;;;;;30.82;62.13;100796.69;5092292;27;69932;-32
2022/12/08 04:37:00;;;;;;;29.73;26.93;;;;;;;30.89;61.98;100802.84;5084433;27;66806;-32
2022/12/08 04:39:31;;;;;;;28.80;25.85;;;;;;;30.78;62.04;100774.59;5085621;27;69849;-33
2022/12/08 04:42:03;;;;;;;32.83;29.43;;;;;;;30.90;61.86;100788.28;5084601;27;65171;-32
2022/12/08 04:44:34;;;;;;;34.38;30.45;;;;;;;30.90;62.18;100778.28;5082490;27;70030;-34
2022/12/08 04:47:06;;;;;;;34.13;29.67;;;;;;;30.91;62.06;100773.69;5083811;27;65485;-35
2022/12/08 04:49:37;;;;;;;35.40;31.90;;;;;;;30.90;62.34;100767.44;5088297;27;70300;-34
2022/12/08 04:52:09;;;;;;;42.65;37.55;;;;;;;30.82;62.21;100742.53;5087311;27;66385;-32
2022/12/08 04:54:40;;;;;;;38.40;34.43;;;;;;;30.62;61.81;100705.59;5081233;27;69642;-34
2022/12/08 04:57:11;;;;;;;33.37;29.80;;;;;;;30.91;61.99;100743.88;5090733;27;66529;-32
2022/12/08 04:59:42;;;;;;;36.60;31.33;;;;;;;30.94;61.99;100757.81;5082974;27;70422;-34
2022/12/08 05:02:13;;;;;;;41.90;36.90;;;;;;;30.97;61.91;100745.69;5081287;27;65336;-32
2022/12/08 05:04:44;;;;;;;;;;;;;;;30.65;62.58;100753.06;5088251;27;69446;-33
2022/12/08 05:07:15;;;;;;;56.50;50.75;;;;;;;30.94;61.88;100735.31;5085341;27;66450;-34
2022/12/08 05:09:47;;;;;;;46.43;41.57;;;;;;;30.99;61.93;100738.19;5080909;27;69881;-32
2022/12/08 05:12:18;;;;;;;48.13;43.20;;;;;;;31.02;62.00;100726.88;5088327;27;66227;-34
2022/12/08 05:14:49;;;;;;;42.03;37.63;;;;;;;31.04;62.02;100724.78;5083852;27;69350;-32
2022/12/08 05:17:21;;;;;;;44.10;39.33;;;;;;;31.00;61.53;100717.34;5091297;27;64983;-33
2022/12/08 05:19:53;;;;;;;40.38;36.03;;;;;;;31.05;61.83;100715.59;5085444;27;70550;-35
2022/12/08 05:22:24;;;;;;;42.57;38.13;;;;;;;31.07;61.68;100713.50;5092758;27;66320;-31
2022/12/08 05:24:55;;;;;;;40.67;36.50;;;;;;;31.10;61.65;100695.97;5082867;27;70155;-32
2022/12/08 05:27:26;;;;;;;40.70;36.77;;;;;;;31.11;61.35;100709.28;5091169;27;66419;-33
2022/12/08 05:29:59;;;;;;;45.00;40.70;;;;;;;31.16;61.74;100711.31;5085862;27;70063;-32
2022/12/08 05:32:30;;;;;;;44.13;39.85;;;;;;;31.00;61.50;100672.09;5088327;27;64752;-32
2022/12/08 05:35:01;;;;;;;44.73;40.53;;;;;;;31.19;61.36;100700.03;5084630;27;70204;-33
2022/12/08 05:37:33;;;;;;;42.67;38.13;;;;;;;31.15;61.45;100677.97;5078454;27;65928;-33
2022/12/08 05:40:05;;;;;;;39.05;35.20;;;;;;;31.22;61.49;100675.19;5093697;27;69217;-35
2022/12/08 05:42:36;;;;;;;41.05;37.08;;;;;;;31.09;61.41;100645.53;5097417;27;66614;-33
2022/12/08 05:45:08;;;;;;;43.43;39.07;;;;;;;31.25;61.22;100665.78;5095682;27;69234;-32
2022/12/08 05:47:40;;;;;;;42.30;37.78;;;;;;;31.13;61.19;100641.31;5097726;27;66520;-33
2022/12/08 05:50:11;;;;;;;40.30;36.23;;;;;;;31.12;61.23;100637.78;5096615;27;69504;-35
2022/12/08 05:52:42;;;;;;;42.50;36.85;;;;;;;31.29;61.17;100653.44;5092702;27;66329;-37
2022/12/08 05:55:13;;;;;;;39.63;35.63;;;;;;;31.16;61.33;100625.44;5088205;27;70838;-36
2022/12/08 05:57:44;;;;;;;40.47;36.33;;;;;;;31.30;61.19;100642.34;5085771;27;64973;-36
2022/12/08 06:00:17;;;;;;;39.47;35.33;;;;;;;31.38;61.10;100649.38;5097826;27;69275;-32
2022/12/08 06:02:47;;;;;;;;;;;;;;;31.08;61.32;100643.88;5094890;27;65426;-32
2022/12/08 06:05:18;;;;;;;40.45;36.35;;;;;;;31.39;61.14;100634.75;5083001;27;70226;-32
2022/12/08 06:07:49;;;;;;;38.47;34.77;;;;;;;31.43;61.02;100632.44;5090477;27;66116;-32
2022/12/08 06:10:21;;;;;;;38.73;35.03;;;;;;;31.12;60.83;100570.06;5098136;27;69549;-33
2022/12/08 06:12:52;;;;;;;39.60;35.72;;;;;;;31.35;60.66;100595.59;5094685;27;65086;-34
2022/12/08 06:15:24;;;;;;;39.83;35.75;;;;;;;31.48;60.68;100606.28;5086210;27;70068;-34
2022/12/08 06:17:55;;;;;;;39.13;35.47;;;;;;;31.44;60.52;100596.94;5093756;27;65317;-34
2022/12/08 06:20:26;;;;;;;37.03;33.40;;;;;;;31.52;60.67;100591.19;5093420;27;69698;-33
2022/12/08 06:22:58;;;;;;;37.38;33.60;;;;;;;31.41;60.82;100573.00;5087504;27;65469;-32
2022/12/08 06:25:29;;;;;;;37.08;33.45;;;;;;;31.54;60.38;100583.66;5099184;27;70192;-33
2022/12/08 06:28:00;;;;;;;35.30;31.98;;;;;;;31.44;60.60;100567.13;5086966;27;65316;-32
2022/12/08 06:30:32;;;;;;;37.30;33.35;;;;;;;31.58;60.70;100584.84;5088389;27;69682;-32
2022/12/08 06:33:03;;;;;;;36.50;32.65;;;;;;;31.48;60.45;100559.34;5087163;27;66102;-32
2022/12/08 06:35:34;;;;;;;36.22;32.45;;;;;;;31.64;60.46;100571.41;5082339;27;70046;-33
2022/12/08 06:38:06;;;;;;;34.08;30.83;;;;;;;31.53;60.88;100549.47;5098240;27;66454;-33
2022/12/08 06:40:37;;;;;;;34.80;31.58;;;;;;;31.63;60.58;100558.94;5069667;27;69975;-31
2022/12/08 06:43:08;;;;;;;33.83;30.83;;;;;;;31.54;60.16;100550.31;5090953;27;66183;-32
2022/12/08 06:45:40;;;;;;;32.22;29.38;;;;;;;31.47;60.45;100536.84;5088561;27;69407;-32
2022/12/08 06:48:12;;;;;;;32.85;29.85;;;;;;;31.74;60.44;100560.84;5090083;27;66461;-32
2022/12/08 06:50:44;;;;;;;33.63;30.20;;;;;;;31.75;60.37;100557.88;5085274;27;70202;-31
2022/12/08 06:53:14;;;;;;;;;;;;;;;31.48;60.78;100560.19;5086914;27;65798;-32
2022/12/08 06:55:50;;;;;;;32.22;28.95;;;;;;;31.31;59.77;100469.72;5091795;27;70022;-33
2022/12/08 06:58:29;;;;;;;31.67;28.52;;;;;;;31.82;60.16;100552.34;5085891;27;65885;-32
2022/12/08 07:01:18;;;;;;;29.67;27.17;;;;;;;31.79;59.86;100552.81;5084183;27;69182;-32
2022/12/08 07:03:49;;;;;;;30.25;27.38;;;;;;;31.71;59.86;100523.34;5085719;27;65343;-32
2022/12/08 07:06:23;;;;;;;30.40;27.53;;;;;;;31.51;59.56;100475.69;5087203;27;69930;-32
2022/12/08 07:08:54;;;;;;;29.92;27.13;;;;;;;31.97;59.61;100555.44;5091465;27;66010;-34
2022/12/08 07:11:26;;;;;;;29.13;26.42;;;;;;;31.98;59.68;100539.97;5096501;27;69995;-31
2022/12/08 07:13:57;;;;;;;28.45;26.02;;;;;;;31.94;59.54;100528.78;5086625;27;65976;-32
2022/12/08 07:16:29;;;;;;;28.10;25.60;;;;;;;31.92;59.38;100508.38;5092990;27;69776;-32
2022/12/08 07:19:00;;;;;;;27.85;25.48;;;;;;;32.05;59.20;100530.66;5093257;27;65672;-31
2022/12/08 07:21:32;;;;;;;28.50;26.10;;;;;;;32.10;59.28;100515.59;5089431;27;70596;-32
2022/12/08 07:24:03;;;;;;;27.60;24.95;;;;;;;32.12;59.03;100518.88;5091127;27;66372;-30
2022/12/08 07:26:35;;;;;;;26.70;24.38;;;;;;;32.11;59.01;100506.38;5086751;27;69944;-31
2022/12/08 07:29:06;;;;;;;26.83;24.10;;;;;;;32.20;58.98;100516.59;5086297;27;66281;-31
2022/12/08 07:31:38;;;;;;;24.70;22.60;;;;;;;32.23;59.04;100526.16;5083770;27;69685;-32
2022/12/08 07:34:11;;;;;;;26.02;23.38;;;;;;;31.79;58.55;100447.06;5092762;27;65962;-33
2022/12/08 07:36:43;;;;;;;24.58;22.38;;;;;;;32.31;58.81;100527.69;5084494;27;70315;-35
2022/12/08 07:39:14;;;;;;;23.87;21.73;;;;;;;32.32;58.66;100519.31;5096959;27;65551;-32
2022/12/08 07:41:45;;;;;;;24.00;21.67;;;;;;;32.36;58.52;100515.06;5090332;27;70351;-32
2022/12/08 07:44:17;;;;;;;22.98;21.05;;;;;;;32.40;58.52;100513.53;5085343;27;66593;-33
2022/12/08 07:46:49;;;;;;;23.10;20.92;;;;;;;32.44;58.29;100511.97;5083760;27;70284;-32
2022/12/08 07:49:20;;;;;;;;;;;;;;;32.19;58.88;100511.44;5089784;27;66446;-31
2022/12/08 07:51:51;;;;;;;22.13;20.23;;;;;;;32.44;58.47;100506.53;5090499;27;68625;-34
2022/12/08 07:54:22;;;;;;;21.83;19.73;;;;;;;32.50;58.08;100502.06;5082028;27;66333;-32
2022/12/08 07:56:57;;;;;;;21.40;19.25;;;;;;;32.56;57.71;100503.00;5086940;27;70377;-33
2022/12/08 07:59:28;;;;;;;21.40;19.25;;;;;;;32.61;57.94;100492.25;5084113;27;66138;-31
2022/12/08 08:02:00;;;;;;;20.73;19.00;;;;;;;32.62;58.00;100491.16;5089559;27;70354;-33
2022/12/08 08:04:52;;;;;;;20.07;18.40;;;;;;;32.65;57.92;100479.81;5086446;27;65727;-32
2022/12/08 08:07:23;;;;;;;20.20;18.33;;;;;;;32.69;57.55;100497.28;5086132;27;69267;-32
2022/12/08 08:09:54;;;;;;;20.45;18.35;;;;;;;32.71;57.48;100495.16;5089305;27;66566;-31
2022/12/08 08:12:26;;;;;;;19.20;17.42;;;;;;;32.75;57.45;100498.22;5085626;27;70052;-33
2022/12/08 08:15:02;;;;;;;18.42;17.00;;;;;;;32.71;57.52;100478.88;5087332;27;65523;-31
2022/12/08 08:17:35;;;;;;;18.90;17.38;;;;;;;32.82;57.43;100486.16;5095158;27;69970;-35
2022/12/08 08:20:07;;;;;;;16.80;15.48;;;;;;;32.80;57.05;100488.28;5089990;27;65628;-32
2022/12/08 08:22:38;;;;;;;18.13;16.48;;;;;;;32.88;57.39;100495.22;5085977;27;69592;-34
2022/12/08 08:25:09;;;;;;;17.63;16.05;;;;;;;32.89;57.05;100494.97;5088231;27;65368;-32
2022/12/08 08:27:41;;;;;;;16.37;15.07;;;;;;;32.88;57.08;100489.78;5086530;27;70036;-34
2022/12/08 08:30:13;;;;;;;16.33;15.02;;;;;;;32.91;56.72;100481.97;5084928;27;66448;-32
2022/12/08 08:32:51;;;;;;;17.33;15.85;;;;;;;32.88;56.52;100466.16;5085833;27;69720;-32
2022/12/08 08:35:22;;;;;;;16.05;14.60;;;;;;;33.05;56.98;100493.38;5086384;27;66718;-34
2022/12/08 08:37:53;;;;;;;16.05;14.75;;;;;;;33.01;56.63;100477.81;5083854;27;70015;-34
2022/12/08 08:40:24;;;;;;;18.63;14.45;;;;;;;33.08;57.20;100486.63;5085045;27;65562;-33
2022/12/08 08:42:56;;;;;;;16.13;14.60;;;;;;;33.10;56.55;100490.75;5087834;27;69156;-36
2022/12/08 08:45:27;;;;;;;15.35;14.13;;;;;;;33.17;56.37;100496.03;5080205;27;66450;-33
2022/12/08 08:47:59;;;;;;;15.65;14.20;;;;;;;33.16;56.24;100491.69;5088061;27;69619;-33
2022/12/08 08:50:30;;;;;;;14.52;13.23;;;;;;;33.12;56.18;100491.31;5079989;27;66456;-32
2022/12/08 08:53:06;;;;;;;15.07;13.77;;;;;;;33.18;56.00;100503.09;5085334;27;70326;-32
2022/12/08 08:55:39;;;;;;;14.30;13.10;;;;;;;32.72;56.05;100420.75;5081634;27;65550;-32
2022/12/08 08:58:13;;;;;;;14.32;13.27;;;;;;;33.26;55.86;100505.41;5076095;27;69250;-33
2022/12/08 09:00:45;;;;;;;14.57;13.30;;;;;;;33.27;56.01;100512.53;5085731;27;65898;-32
2022/12/08 09:03:17;;;;;;;13.82;12.85;;;;;;;33.28;55.91;100516.88;5079654;27;70170;-33
2022/12/08 09:05:50;;;;;;;13.20;12.30;;;;;;;33.04;55.73;100466.44;5083490;27;66159;-31
2022/12/08 09:08:22;;;;;;;12.77;11.98;;;;;;;33.33;55.61;100511.53;5087627;27;70428;-32
2022/12/08 09:10:54;;;;;;;13.63;11.60;;;;;;;33.16;56.61;100513.41;5079471;27;66867;-32
2022/12/08 09:13:26;;;;;;;13.05;10.57;;;;;;;33.03;57.78;100508.28;5086042;27;69712;-32
2022/12/08 09:15:59;;;;;;;11.95;10.77;;;;;;;32.57;58.52;100456.63;5086180;27;66238;-32
2022/12/08 09:18:31;;;;;;;11.50;10.30;;;;;;;32.57;58.83;100472.91;5082523;27;70491;-32
2022/12/08 09:21:12;;;;;;;10.82;9.90;;;;;;;32.53;59.23;100481.75;5086414;27;66278;-31
2022/12/08 09:23:43;;;;;;;11.40;9.77;;;;;;;32.70;59.63;100521.47;5078056;27;71023;-32
2022/12/08 09:26:14;;;;;;;10.50;9.70;;;;;;;32.44;59.97;100487.53;5087435;27;65840;-33
2022/12/08 09:28:46;;;;;;;9.95;8.98;;;;;;;32.60;60.28;100518.59;5080815;27;70504;-33
2022/12/08 09:31:19;;;;;;;11.68;10.00;;;;;;;32.11;60.37;100452.09;5084844;27;65873;-34
2022/12/08 09:33:51;;;;;;;10.18;9.27;;;;;;;32.58;60.33;100533.47;5081083;27;70200;-32
2022/12/08 09:36:22;;;;;;;9.65;8.88;;;;;;;32.52;60.65;100534.44;5084918;27;65385;-35
2022/12/08 09:38:53;;;;;;;9.85;9.00;;;;;;;32.46;60.86;100528.06;5081082;27;70354;-34
2022/12/08 09:42:11;;;;;;;10.00;9.02;;;;;;;32.41;61.10;100544.22;5085218;27;65928;-32
2022/12/08 09:44:51;;;;;;;9.55;8.75;;;;;;;32.45;60.92;100534.50;5083075;27;70072;-36
2022/12/08 09:47:35;;;;;;;9.85;8.70;;;;;;;32.51;60.99;100549.88;5087480;27;66562;-33
2022/12/08 09:50:14;;;;;;;10.95;8.40;;;;;;;32.18;61.18;100507.91;5079031;27;70858;-35
2022/12/08 09:53:15;;;;;;;9.05;7.97;;;;;;;32.35;61.33;100540.56;5083112;27;66356;-32
2022/12/08 09:56:01;;;;;;;10.27;8.15;;;;;;;32.32;61.27;100543.75;5079379;27;70141;-32
2022/12/08 09:58:58;;;;;;;9.60;8.70;;;;;;;32.38;61.46;100567.22;5084916;27;65730;-31
2022/12/08 10:01:40;;;;;;;15.02;8.25;;;;;;;32.46;61.26;100575.03;5047465;27;70148;-32
2022/12/08 10:04:36;;;;;;;10.60;8.27;;;;;;;32.37;61.80;100571.00;5079747;27;66571;-37
2022/12/08 10:07:44;;;;;;;18.98;8.63;;;;;;;32.40;61.88;100586.81;5081204;27;70494;-34
2022/12/08 10:10:18;;;;;;;22.35;8.77;;;;;;;32.43;62.64;100586.34;5077291;27;65977;-34
2022/12/08 10:13:06;;;;;;;8.85;7.95;;;;;;;32.37;62.20;100591.88;5082589;27;69599;-32
2022/12/08 10:15:43;;;;;;;8.80;8.00;;;;;;;32.22;62.16;100568.78;5079380;27;65683;-32
2022/12/08 10:18:16;;;;;;;11.13;8.25;;;;;;;32.52;61.73;100605.03;5085103;27;69487;-33
2022/12/08 10:20:50;;;;;;;9.63;8.10;;;;;;;32.31;61.73;100552.94;5081122;27;66769;-32
2022/12/08 10:23:35;;;;;;;16.95;8.35;;;;;;;32.62;61.71;100618.81;5085538;27;69590;-32
2022/12/08 10:26:15;;;;;;;19.42;8.05;;;;;;;32.74;61.10;100616.91;5082501;27;66576;-37
2022/12/08 10:28:47;;;;;;;17.88;8.63;;;;;;;32.81;61.35;100619.47;5087066;27;69535;-32
2022/12/08 10:31:21;;;;;;;;;;;;;;;32.61;61.91;100625.31;5086653;27;66318;-36
2022/12/08 10:34:09;;;;;;;14.85;8.30;;;;;;;32.85;61.34;100621.47;5092105;27;69088;-35
2022/12/08 10:36:50;;;;;;;16.58;8.75;;;;;;;32.89;61.34;100627.25;5086478;27;66343;-32
2022/12/08 10:39:45;;;;;;;15.95;7.65;;;;;;;32.70;61.10;100602.13;5091922;27;70114;-32
2022/12/08 10:42:21;;;;;;;9.07;7.00;;;;;;;32.94;61.14;100628.19;5089998;27;65484;-32
2022/12/08 10:45:01;;;;;;;15.05;8.30;;;;;;;32.44;61.04;100541.84;5084297;27;70278;-34
2022/12/08 10:47:37;;;;;;;15.27;8.00;;;;;;;32.86;60.86;100595.97;5089227;27;66066;-33
2022/12/08 10:50:23;;;;;;;14.07;7.28;;;;;;;32.57;61.23;100558.94;5083340;27;70318;-35
2022/12/08 10:53:11;;;;;;;14.83;8.17;;;;;;;32.58;61.10;100566.03;5086468;27;65722;-34
2022/12/08 10:55:50;;;;;;;12.65;7.97;;;;;;;32.94;61.36;100624.66;5083801;27;69516;-35
2022/12/08 10:58:29;;;;;;;12.10;7.63;;;;;;;32.49;61.31;100547.41;5093348;27;66647;-35
2022/12/08 11:01:32;;;;;;;8.55;7.68;;;;;;;32.93;61.32;100622.97;5088247;27;70135;-36
2022/12/08 11:04:23;;;;;;;13.27;7.25;;;;;;;32.96;61.55;100633.41;5092270;27;65824;-35
2022/12/08 11:06:54;;;;;;;12.40;7.55;;;;;;;32.94;61.54;100630.91;5082844;27;68875;-36
2022/12/08 11:09:48;;;;;;;10.45;7.18;;;;;;;32.84;61.80;100636.13;5089092;27;65275;-36
2022/12/08 11:12:25;;;;;;;10.60;7.40;;;;;;;32.93;61.92;100645.56;5088247;27;70521;-37
2022/12/08 11:15:02;;;;;;;10.60;7.60;;;;;;;32.89;62.21;100641.66;5089469;27;66293;-35
2022/12/08 11:17:40;;;;;;;12.43;7.43;;;;;;;32.47;61.98;100587.53;5084916;27;71401;-34
2022/12/08 11:20:14;;;;;;;15.60;7.43;;;;;;;32.90;62.12;100650.63;5091626;27;66450;-33
2022/12/08 11:22:55;;;;;;;10.48;7.22;;;;;;;32.35;62.24;100562.28;5082025;27;71175;-32
2022/12/08 11:25:28;;;;;;;10.70;7.15;;;;;;;32.76;62.27;100649.25;5087394;27;66469;-35
2022/12/08 11:28:01;;;;;;;8.63;7.63;;;;;;;32.75;62.22;100653.84;5079202;27;68986;-35
2022/12/08 11:30:41;;;;;;;9.15;7.20;;;;;;;32.73;62.35;100645.13;5087548;27;65836;-32
2022/12/08 11:33:23;;;;;;;15.57;7.80;;;;;;;32.67;62.26;100643.34;5088810;27;70309;-33
2022/12/08 11:36:03;;;;;;;10.52;7.40;;;;;;;32.39;62.06;100601.44;5087610;27;66617;-33
2022/12/08 11:38:40;;;;;;;13.05;7.45;;;;;;;32.82;62.37;100673.59;5081849;27;69878;-32
2022/12/08 11:41:16;;;;;;;13.88;8.00;;;;;;;32.59;62.08;100635.56;5082908;27;66111;-33
2022/12/08 11:44:12;;;;;;;14.65;7.45;;;;;;;32.80;62.25;100678.41;5085668;27;70656;-34
2022/12/08 11:46:48;;;;;;;11.52;7.22;;;;;;;32.77;62.45;100678.09;5084052;27;65287;-33
2022/12/08 11:49:20;;;;;;;10.18;6.82;;;;;;;32.71;62.36;100671.72;5087661;27;70600;-35
2022/12/08 11:52:03;;;;;;;8.02;7.15;;;;;;;32.66;62.70;100682.44;5081832;27;65681;-32